^^
Station Historical Data
Daily Summary for June 20, 2017 Units:  Metric    English   Both
« Previous Day
Next Day »
Daily Weekly Monthly Yearly Custom
  High: Low: Average:
Temperature: 19 °C 7.3 °C 14.1 °C
Dew Point: 3.9 °C -0.8 °C 1.4 °C
Humidity: 57% 32% 43%
Wind Speed: 11.1km/h 0km/h 3.1km/h
Wind Gust: 16.1km/h - -
Wind- - SW
Pressure: 1023.2 hPa 1021.2 hPa -
Precipitation: 0 mm    
Historical Graphs
 
 
Tabular Data for June 20, 2017
Time Temperature Dew Point Pressure Wind Wind Speed Wind Gust Humidity Rainfall Rate (Hourly) solar Conditions
11:31 15.8 °C 3.9 °C 1023.2 hPa SW 4.7 km/h 11.3 km/h 45% 0 mm 592.0 W/m2
11:37 16.2 °C 3.9 °C 1023.2 hPa Calm     44% 0 mm 596.0 W/m2
11:52 16.6 °C 3.6 °C 1022.9 hPa Calm     42% 0 mm 598.0 W/m2
12:03 17.3 °C 2.8 °C 1022.6 hPa Calm     38% 0 mm 599.0 W/m2
12:23 17.9 °C 2.6 °C 1022.6 hPa Calm     36% 0 mm 592.0 W/m2
12:36 18.2 °C 2.5 °C 1022.2 hPa Calm     35% 0 mm 584.0 W/m2
12:44 18.3 °C 2.6 °C 1022.2 hPa SW 11.1 km/h 12.9 km/h 35% 0 mm 577.0 W/m2
14:12 18.5 °C 3.1 °C 1021.6 hPa SW 11.1 km/h 16.1 km/h 36% 0 mm 441.0 W/m2
14:21 18.4 °C 3.1 °C 1021.6 hPa SW 11.1 km/h 16.1 km/h 36% 0 mm 420.0 W/m2
14:24 18.5 °C 2.7 °C 1021.2 hPa SW 11.1 km/h 11.3 km/h 35% 0 mm 410.0 W/m2
14:32 18.5 °C 2.7 °C 1021.6 hPa SW 6.4 km/h 12.9 km/h 35% 0 mm 399.0 W/m2
14:43 18.6 °C 2.4 °C 1021.2 hPa Calm   9.7 km/h 34% 0 mm 376.0 W/m2
14:49 18.8 °C 2.6 °C 1021.2 hPa SW 9.7 km/h 11.3 km/h 34% 0 mm 350.0 W/m2
15:05 18.8 °C 2.6 °C 1021.6 hPa SW 9.7 km/h 11.3 km/h 34% 0 mm 309.0 W/m2
15:26 18.9 °C 2.3 °C 1021.6 hPa SW 6.4 km/h 9.7 km/h 33% 0 mm 271.0 W/m2
15:41 19 °C 1.9 °C 1021.6 hPa SW 6.4 km/h 11.3 km/h 32% 0 mm 223.0 W/m2
15:53 18.9 °C 1.8 °C 1021.6 hPa SW 7.9 km/h 8 km/h 32% 0 mm 167.0 W/m2
16:03 18.9 °C 1.8 °C 1021.6 hPa SW 6.4 km/h 8 km/h 32% 0 mm 130.0 W/m2
16:05 18.9 °C 1.8 °C 1021.6 hPa SW 7.9 km/h 11.3 km/h 32% 0 mm 113.0 W/m2
16:10 18.8 °C 1.8 °C 1021.6 hPa SW 9.7 km/h 12.9 km/h 32% 0 mm 95.0 W/m2
16:18 18.7 °C 1.7 °C 1021.6 hPa SW 9.7 km/h 11.3 km/h 32% 0 mm 79.0 W/m2
16:21 18.6 °C 2 °C 1021.6 hPa SW 6.4 km/h 9.7 km/h 33% 0 mm 65.0 W/m2
16:33 18.4 °C 1.8 °C 1021.6 hPa SW 9.7 km/h 11.3 km/h 33% 0 mm 37.0 W/m2
16:36 18.2 °C 1.7 °C 1021.6 hPa SW 9.7 km/h 9.7 km/h 33% 0 mm 23.0 W/m2
16:43 18 °C 1.9 °C 1021.6 hPa SW 7.9 km/h 11.3 km/h 34% 0 mm 12.0 W/m2
17:22 15.8 °C 1.5 °C 1021.6 hPa SW 6.4 km/h 8 km/h 38% 0 mm 0.0 W/m2
17:27 15.6 °C 1.7 °C 1021.9 hPa SW 4.7 km/h 4.8 km/h 39% 0 mm 0.0 W/m2
17:37 15.1 °C 1.2 °C 1021.9 hPa Calm   3.2 km/h 39% 0 mm 0.0 W/m2
17:42 14.8 °C 1.3 °C 1021.9 hPa Calm     40% 0 mm 0.0 W/m2
17:47 14.6 °C 1.5 °C 1021.9 hPa Calm     41% 0 mm 0.0 W/m2
17:52 14.4 °C 1.3 °C 1021.9 hPa Calm     41% 0 mm 0.0 W/m2
17:59 14.2 °C 1.5 °C 1022.2 hPa Calm     42% 0 mm 0.0 W/m2
18:05 13.8 °C 1.4 °C 1022.2 hPa Calm     43% 0 mm 0.0 W/m2
18:13 13.3 °C 1.6 °C 1022.2 hPa Calm     45% 0 mm 0.0 W/m2
18:23 13.2 °C 1.5 °C 1022.2 hPa Calm     45% 0 mm 0.0 W/m2
18:44 12.7 °C 1.1 °C 1022.6 hPa Calm     45% 0 mm 0.0 W/m2
18:54 12.7 °C 1.4 °C 1022.9 hPa Calm     46% 0 mm 0.0 W/m2
19:09 12.3 °C 1.3 °C 1022.9 hPa Calm     47% 0 mm 0.0 W/m2
19:25 12.1 °C 1.7 °C 1022.9 hPa Calm     49% 0 mm 0.0 W/m2
19:40 11.5 °C 1.4 °C 1022.9 hPa Calm     50% 0 mm 0.0 W/m2
19:56 10.9 °C 1.4 °C 1023.2 hPa Calm     52% 0 mm 0.0 W/m2
20:12 10.5 °C 1.6 °C 1023.2 hPa Calm     54% 0 mm 0.0 W/m2
20:33 10.1 °C 1.2 °C 1022.9 hPa Calm     54% 0 mm 0.0 W/m2
20:42 9.6 °C 1 °C 1023.2 hPa Calm     55% 0 mm 0.0 W/m2
20:50 9.3 °C 0.7 °C 1023.2 hPa Calm     55% 0 mm 0.0 W/m2
22:23 7.6 °C -0.4 °C 1022.9 hPa Calm     57% 0 mm 0.0 W/m2
22:28 7.5 °C -0.5 °C 1022.9 hPa Calm     57% 0 mm 0.0 W/m2
22:33 7.4 °C -0.8 °C 1022.9 hPa Calm     56% 0 mm 0.0 W/m2
22:38 7.3 °C -0.7 °C 1022.6 hPa Calm     57% 0 mm 0.0 W/m2
22:44 7.4 °C -0.6 °C 1022.6 hPa Calm     57% 0 mm 0.0 W/m2
22:50 7.5 °C -0.5 °C 1022.6 hPa Calm     57% 0 mm 0.0 W/m2
22:52 7.6 °C -0.6 °C 1022.6 hPa Calm     56% 0 mm 0.0 W/m2
23:07 7.7 °C -0.5 °C 1022.6 hPa Calm     56% 0 mm 0.0 W/m2
23:17 7.4 °C -0.6 °C 1022.2 hPa Calm     57% 0 mm 0.0 W/m2
23:28 7.8 °C -0.2 °C 1022.6 hPa Calm     57% 0 mm 0.0 W/m2
23:39 8.1 °C -0.4 °C 1022.6 hPa Calm     55% 0 mm 0.0 W/m2
23:59 7.7 °C -0.8 °C 1022.9 hPa Calm     55% 0 mm 0.0 W/m2
Canyon Roadhouse, Fishriver Canyon, Namibia
Compliments of Weather Underground - 1.75 mb